Time;durP1;ratioP1;P1;durP2;ratioP2;P2;SDS_P1;SDS_P2;PMS_P1;PMS_P2;Temp;Humidity;BMP_temperature;BMP_pressure;BME280_temperature;BME280_humidity;BME280_pressure;Samples;Min_cycle;Max_cycle;Signal;HPM_P1;HPM_P2
2022/01/23 00:01:50;;;;;;;36.33;20.48;;;;;;;-3.48;63.52;98131.06;10374379;28;20053;-59
2022/01/23 00:06:49;;;;;;;35.65;21.48;;;;;;;-3.46;64.58;98132.94;10380414;28;20079;-58
2022/01/23 00:11:53;;;;;;;50.63;27.98;;;;;;;-3.60;63.82;98136.28;10381830;28;20496;-59
2022/01/23 00:22:11;;;;;;;56.10;30.65;;;;;;;-3.68;64.47;98132.44;10381647;28;20056;-59
2022/01/23 00:32:38;;;;;;;44.50;23.40;;;;;;;-3.72;63.82;98141.50;10327071;28;20488;-59
2022/01/23 00:37:37;;;;;;;39.15;21.90;;;;;;;-3.76;64.01;98140.47;10381062;28;20459;-59
2022/01/23 00:42:36;;;;;;;;;;;;;;;-3.74;65.22;98144.72;10379725;28;20134;-59
2022/01/23 00:47:35;;;;;;;41.85;22.05;;;;;;;-3.74;65.29;98137.13;10381230;28;20007;-59
2022/01/23 00:52:34;;;;;;;51.22;25.73;;;;;;;-3.73;64.25;98149.03;10380422;28;20029;-59
2022/01/23 00:57:33;;;;;;;43.30;25.90;;;;;;;-3.77;65.27;98133.63;10380435;28;20076;-59
2022/01/23 01:02:33;;;;;;;37.45;19.92;;;;;;;-3.71;64.91;98139.88;10379705;28;20080;-59
2022/01/23 01:07:32;;;;;;;30.42;16.92;;;;;;;-3.75;65.84;98138.78;10379879;28;20471;-59
2022/01/23 01:12:39;;;;;;;27.73;14.95;;;;;;;-3.84;64.92;98131.50;10380199;28;20068;-59
2022/01/23 01:38:26;;;;;;;17.77;10.30;;;;;;;-3.88;66.02;98154.03;10378660;28;20071;-59
2022/01/23 01:43:25;;;;;;;23.90;11.10;;;;;;;-3.87;66.10;98146.53;10376978;28;20450;-59
2022/01/23 01:48:25;;;;;;;20.02;12.30;;;;;;;-3.86;65.61;98138.13;10378231;28;20484;-59
2022/01/23 01:53:25;;;;;;;20.75;12.38;;;;;;;-3.80;65.73;98148.66;10378003;28;20456;-59
2022/01/23 02:08:33;;;;;;;20.67;11.40;;;;;;;-3.81;65.88;98151.09;10377673;28;20067;-59
2022/01/23 02:13:45;;;;;;;18.45;9.75;;;;;;;-3.84;64.96;98146.72;10377056;28;20073;-59
2022/01/23 02:50:42;;;;;;;16.90;9.13;;;;;;;-3.69;64.61;98161.09;10357126;28;20060;-59
2022/01/23 02:55:46;;;;;;;15.20;8.23;;;;;;;-3.74;64.27;98173.50;10375792;28;20059;-59
2022/01/23 03:01:31;;;;;;;13.88;8.25;;;;;;;-3.71;64.19;98188.06;10375648;28;20060;-59
2022/01/23 03:11:26;;;;;;;17.35;8.77;;;;;;;-3.65;64.70;98183.34;10375263;28;20063;-59
2022/01/23 03:31:39;;;;;;;15.35;7.95;;;;;;;-3.63;64.75;98202.06;10375321;28;20032;-59
2022/01/23 03:36:38;;;;;;;13.05;7.85;;;;;;;-3.63;65.12;98195.31;10375063;28;20074;-59
2022/01/23 03:41:41;;;;;;;13.82;7.38;;;;;;;-3.70;64.40;98202.47;10373797;28;20064;-59
2022/01/23 03:46:50;;;;;;;17.92;9.60;;;;;;;-3.78;63.88;98199.47;10374003;28;20063;-59
2022/01/23 03:51:49;;;;;;;26.83;14.13;;;;;;;-3.86;63.93;98204.03;10374347;28;20071;-59
2022/01/23 03:56:48;;;;;;;65.22;34.65;;;;;;;-3.96;63.09;98206.78;10374167;28;20040;-59
2022/01/23 04:01:46;;;;;;;27.27;16.40;;;;;;;-4.03;61.98;98209.72;10373957;28;20035;-59
2022/01/23 04:06:45;;;;;;;34.78;19.80;;;;;;;-4.03;63.42;98219.88;10374080;28;20472;-59
2022/01/23 04:11:45;;;;;;;20.17;12.88;;;;;;;-4.03;63.61;98222.41;10372679;28;20029;-59
2022/01/23 04:32:46;;;;;;;18.58;9.90;;;;;;;-3.99;64.77;98224.38;10373901;28;20113;-59
2022/01/23 05:08:57;;;;;;;32.08;18.23;;;;;;;-3.72;66.19;98250.56;10379861;28;20071;-59
2022/01/23 05:13:56;;;;;;;30.42;18.17;;;;;;;-3.67;66.08;98266.06;10379713;28;20060;-59
2022/01/23 05:18:55;;;;;;;32.40;19.33;;;;;;;-3.68;65.85;98269.38;10379797;28;20036;-59
2022/01/23 05:23:54;;;;;;;34.47;19.23;;;;;;;-3.78;66.05;98253.59;10379133;28;20112;-59
2022/01/23 05:28:53;;;;;;;33.15;19.42;;;;;;;-3.64;67.16;98284.03;10379052;28;20406;-59
2022/01/23 05:33:52;;;;;;;33.03;19.50;;;;;;;-3.70;66.85;98256.59;10378848;28;20306;-59
2022/01/23 05:38:51;;;;;;;37.53;21.58;;;;;;;-3.57;66.64;98269.28;10378799;28;20043;-59
2022/01/23 05:43:50;;;;;;;43.97;23.17;;;;;;;-3.53;67.62;98280.47;10377263;28;20468;-59
2022/01/23 05:48:49;;;;;;;;;;;;;;;-3.49;67.36;98277.34;10378487;28;20064;-59
2022/01/23 05:53:48;;;;;;;66.80;35.50;;;;;;;-3.51;67.24;98278.91;10378282;28;19912;-59
2022/01/23 05:58:47;;;;;;;82.10;49.33;;;;;;;-3.65;66.75;98289.84;10378026;28;20125;-59
2022/01/23 06:03:46;;;;;;;93.55;53.35;;;;;;;-3.65;67.87;98284.78;10377217;28;20507;-59
2022/01/23 06:08:45;;;;;;;99.82;54.10;;;;;;;-3.78;66.98;98291.63;10377336;28;20025;-59
2022/01/23 06:13:44;;;;;;;75.38;42.42;;;;;;;-3.85;66.91;98271.75;10377336;28;20021;-59
2022/01/23 06:18:45;;;;;;;37.33;21.00;;;;;;;-3.63;66.20;98295.91;10377871;28;20033;-59
2022/01/23 06:23:45;;;;;;;40.13;22.33;;;;;;;-3.69;65.88;98309.09;10376814;28;20100;-59
2022/01/23 06:28:54;;;;;;;33.75;19.95;;;;;;;-3.79;65.16;98312.72;10376945;28;20056;-59
2022/01/23 06:33:53;;;;;;;;;;;;;;;-3.81;65.73;98314.25;10377564;28;20059;-59
2022/01/23 06:38:52;;;;;;;35.25;19.25;;;;;;;-3.87;65.09;98291.03;10376125;28;19901;-59
2022/01/23 06:43:51;;;;;;;37.22;20.42;;;;;;;-3.66;64.81;98303.34;10376140;28;20510;-59
2022/01/23 06:48:50;;;;;;;35.53;19.85;;;;;;;-3.58;64.42;98295.41;10376185;28;20047;-59
2022/01/23 06:53:49;;;;;;;42.97;26.20;;;;;;;-3.52;64.58;98284.78;10376261;28;20052;-59
2022/01/23 06:58:48;;;;;;;44.72;27.90;;;;;;;-3.41;65.13;98295.56;10374984;28;20065;-59
2022/01/23 07:03:48;;;;;;;59.25;33.35;;;;;;;-3.20;64.56;98284.25;10375413;28;20036;-59
2022/01/23 07:08:46;;;;;;;;;;;;;;;-2.99;63.64;98292.28;10376176;28;20094;-59
2022/01/23 07:13:45;;;;;;;57.35;37.22;;;;;;;-2.89;63.54;98282.69;10375117;28;19952;-59
2022/01/23 07:18:44;;;;;;;76.03;44.55;;;;;;;-2.85;64.41;98288.03;10374938;28;20036;-59
2022/01/23 07:23:50;;;;;;;71.38;43.78;;;;;;;-2.86;64.10;98293.88;10374909;28;20044;-59
2022/01/23 07:28:51;;;;;;;103.90;57.33;;;;;;;-2.93;64.48;98268.91;10374927;28;20071;-59
2022/01/23 07:33:50;;;;;;;117.95;63.22;;;;;;;-2.74;64.63;98293.72;10374571;28;20049;-59
2022/01/23 07:38:49;;;;;;;99.43;54.28;;;;;;;-2.63;64.96;98295.25;10372831;28;20021;-59
2022/01/23 07:43:49;;;;;;;50.15;30.65;;;;;;;-2.45;64.39;98292.03;10373985;28;20389;-59
2022/01/23 07:48:48;;;;;;;47.90;27.70;;;;;;;-2.30;63.78;98283.63;10372854;28;20134;-59
2022/01/23 08:06:41;;;;;;;24.00;15.65;;;;;;;-1.65;59.79;98277.97;10531962;27;21000;-58
2022/01/23 08:11:40;;;;;;;19.63;12.55;;;;;;;-1.65;58.53;98259.28;10534982;28;20478;-58
2022/01/23 08:16:39;;;;;;;23.10;14.93;;;;;;;-2.06;57.59;98133.25;10534306;28;20494;-58
2022/01/23 08:21:38;;;;;;;;;;;;;;;-0.92;57.53;98290.34;10534632;28;20061;-59
2022/01/23 08:26:37;;;;;;;20.35;12.88;;;;;;;-1.48;52.05;98184.72;10498150;28;19919;-58
2022/01/23 08:31:36;;;;;;;;;;;;;;;-0.90;52.20;98288.75;10505968;28;20461;-59
2022/01/23 08:36:36;;;;;;;37.47;21.00;;;;;;;-1.88;50.60;98151.19;10497823;28;20449;-59
2022/01/23 08:41:49;;;;;;;;;;;;;;;-1.28;50.16;98294.34;10518731;28;20048;-59
2022/01/23 08:46:49;;;;;;;19.80;11.48;;;;;;;-1.17;50.44;98297.47;10491943;28;19951;-59
2022/01/23 08:51:50;;;;;;;60.72;34.15;;;;;;;-1.39;50.08;98273.41;10491335;28;20067;-59
2022/01/23 08:56:49;;;;;;;48.53;27.85;;;;;;;-1.09;49.60;98288.59;10525789;28;20062;-59
2022/01/23 09:01:48;;;;;;;20.95;13.38;;;;;;;-1.15;48.43;98280.63;10533020;28;20026;-59
2022/01/23 09:06:47;;;;;;;20.90;12.80;;;;;;;-1.27;47.75;98261.34;10508370;28;20028;-59
2022/01/23 09:17:04;;;;;;;20.98;12.50;;;;;;;-0.86;47.79;98272.84;10504989;28;20062;-59
2022/01/23 09:22:03;;;;;;;19.15;12.50;;;;;;;-0.64;48.58;98281.59;10503928;28;20078;-60
2022/01/23 09:27:05;;;;;;;21.25;11.80;;;;;;;-0.87;46.84;98221.81;10504222;28;20473;-60
2022/01/23 09:32:09;;;;;;;15.32;10.00;;;;;;;-0.78;47.39;98268.13;10503461;28;20062;-60
2022/01/23 09:37:10;;;;;;;19.77;11.77;;;;;;;-0.94;46.94;98260.50;10503782;28;20059;-60
2022/01/23 09:42:14;;;;;;;24.33;15.43;;;;;;;-0.96;48.06;98262.97;10503126;28;20047;-60
2022/01/23 09:47:15;;;;;;;18.70;10.45;;;;;;;-0.93;49.85;98252.94;10503630;28;20059;-60
2022/01/23 09:52:15;;;;;;;23.92;15.40;;;;;;;-1.02;47.07;98255.00;10502971;28;20101;-60
2022/01/23 09:57:15;;;;;;;25.65;16.77;;;;;;;-1.16;46.77;98249.19;10461373;28;20059;-60
2022/01/23 10:02:14;;;;;;;24.65;15.07;;;;;;;-1.22;47.71;98239.53;10460312;28;20063;-60
2022/01/23 10:07:13;;;;;;;31.27;18.08;;;;;;;-1.45;46.27;98222.16;10460763;28;20067;-60
2022/01/23 10:12:13;;;;;;;22.35;12.57;;;;;;;-1.46;47.29;98220.44;10458439;28;20132;-60
2022/01/23 10:17:12;;;;;;;26.77;16.45;;;;;;;-1.39;48.01;98239.47;10459367;28;20497;-60
2022/01/23 10:22:12;;;;;;;19.92;13.63;;;;;;;-1.60;48.50;98244.28;10459383;28;20059;-60
2022/01/23 10:27:11;;;;;;;23.23;14.02;;;;;;;-1.81;49.27;98234.66;10460332;28;20059;-60
2022/01/23 10:32:18;;;;;;;20.63;13.75;;;;;;;-2.37;49.74;98153.56;10459555;28;20061;-60
2022/01/23 10:37:29;;;;;;;24.40;13.88;;;;;;;-1.92;49.67;98230.66;10492623;28;20062;-60
2022/01/23 10:47:49;;;;;;;22.35;12.70;;;;;;;-1.96;49.97;98233.81;10500719;28;20073;-60
2022/01/23 10:52:51;;;;;;;16.00;10.25;;;;;;;-1.93;49.46;98228.91;10495008;27;20059;-60
2022/01/23 10:57:56;;;;;;;23.10;13.50;;;;;;;-1.99;50.68;98209.06;10458606;28;20059;-60
2022/01/23 11:02:58;;;;;;;17.05;11.05;;;;;;;-1.98;52.23;98232.88;10458252;28;20059;-60
2022/01/23 11:07:57;;;;;;;12.27;7.57;;;;;;;-2.23;54.03;98208.59;10458239;28;20063;-60
2022/01/23 11:18:06;;;;;;;23.25;13.55;;;;;;;-2.39;56.73;98161.09;10457823;28;20078;-60
2022/01/23 11:23:15;;;;;;;21.40;13.20;;;;;;;-2.11;57.93;98219.44;10457986;28;20055;-60
2022/01/23 11:28:14;;;;;;;14.40;8.63;;;;;;;-2.02;58.77;98191.13;10457285;28;20055;-60
2022/01/23 11:33:17;;;;;;;15.88;10.30;;;;;;;-1.91;59.78;98209.53;10456330;28;20039;-60
2022/01/23 11:38:19;;;;;;;21.88;14.23;;;;;;;-2.11;61.31;98186.38;10457278;28;20064;-60
2022/01/23 11:54:07;;;;;;;23.10;14.27;;;;;;;-2.19;65.92;98200.38;10457364;28;20056;-60
2022/01/23 11:59:39;;;;;;;25.55;15.70;;;;;;;-2.15;65.55;98196.31;10456437;28;20862;-60
2022/01/23 12:04:42;;;;;;;27.67;15.52;;;;;;;-2.20;66.74;98203.69;10456159;28;20063;-60
2022/01/23 12:10:03;;;;;;;25.42;17.23;;;;;;;-2.25;67.63;98169.50;10456477;28;20359;-60
2022/01/23 12:20:43;;;;;;;23.10;15.65;;;;;;;-2.19;69.13;98179.16;10456587;28;20071;-60
2022/01/23 12:25:49;;;;;;;20.88;13.45;;;;;;;-2.29;69.34;98175.19;10454351;28;20067;-60
2022/01/23 12:30:50;;;;;;;25.15;15.38;;;;;;;-2.30;68.76;98165.84;10456109;28;20059;-60
2022/01/23 12:35:54;;;;;;;24.92;15.18;;;;;;;-2.14;68.68;98176.06;10455778;28;20063;-60
2022/01/23 12:40:53;;;;;;;22.77;15.45;;;;;;;-2.65;68.26;98075.81;10460368;28;20063;-60
2022/01/23 12:46:04;;;;;;;23.65;13.00;;;;;;;-2.07;68.89;98170.53;10463292;28;20453;-60
2022/01/23 12:51:05;;;;;;;26.42;14.38;;;;;;;-1.97;68.08;98165.94;10463609;28;20554;-60
2022/01/23 12:56:10;;;;;;;21.52;13.10;;;;;;;-1.70;67.54;98162.34;10462672;28;20062;-60
2022/01/23 13:01:21;;;;;;;21.58;13.32;;;;;;;-2.07;67.23;98080.66;10484688;27;20055;-60
2022/01/23 13:06:34;;;;;;;24.08;15.85;;;;;;;-1.58;66.74;98176.53;10497091;27;20074;-60
2022/01/23 13:11:52;;;;;;;25.55;16.25;;;;;;;-1.35;66.34;98175.16;10462559;28;20066;-60
2022/01/23 13:32:47;;;;;;;18.90;10.65;;;;;;;-1.24;65.42;98185.09;10545707;27;20050;-60
2022/01/23 13:37:57;;;;;;;13.88;9.05;;;;;;;-1.22;65.34;98208.13;10546170;27;20073;-60
2022/01/23 13:59:07;;;;;;;29.42;20.00;;;;;;;-1.73;66.51;98174.88;10479073;28;20063;-60
2022/01/23 14:04:06;;;;;;;20.63;12.00;;;;;;;-1.51;67.12;98216.78;10467358;28;20070;-61
2022/01/23 14:09:08;;;;;;;26.75;19.38;;;;;;;-1.68;67.06;98216.75;10477612;28;20106;-60
2022/01/23 14:14:15;;;;;;;16.17;10.52;;;;;;;-1.86;67.38;98205.56;10465220;28;20059;-60
2022/01/23 14:19:18;;;;;;;21.90;12.52;;;;;;;-1.85;68.01;98210.72;10484428;28;20071;-60
2022/01/23 14:24:36;;;;;;;30.30;20.08;;;;;;;-1.98;68.38;98203.22;10499466;27;20085;-60
2022/01/23 14:29:50;;;;;;;35.55;21.65;;;;;;;-2.08;69.31;98204.38;10500574;28;20557;-60
2022/01/23 14:34:49;;;;;;;28.40;17.48;;;;;;;-2.32;70.86;98195.38;10499947;28;20067;-60
2022/01/23 14:39:48;;;;;;;28.15;16.52;;;;;;;-2.66;70.68;98149.38;10479576;28;20063;-60
2022/01/23 14:44:47;;;;;;;30.73;19.48;;;;;;;-2.33;70.55;98207.22;10490597;28;20422;-60
2022/01/23 14:49:47;;;;;;;29.20;18.98;;;;;;;-2.40;71.16;98214.41;10485116;28;20032;-60
2022/01/23 14:54:46;;;;;;;24.63;16.38;;;;;;;-2.34;70.67;98219.81;10456796;28;20056;-60
2022/01/23 14:59:45;;;;;;;25.85;16.60;;;;;;;-2.31;70.97;98218.34;10450581;27;20068;-61
2022/01/23 15:04:45;;;;;;;;;;;;;;;-2.35;70.22;98225.72;10373921;28;20091;-60
2022/01/23 15:09:49;;;;;;;31.08;19.73;;;;;;;-2.46;70.09;98221.66;10375046;28;19952;-60
2022/01/23 15:14:48;;;;;;;35.70;19.98;;;;;;;-2.60;70.13;98231.91;10374123;28;20099;-60
2022/01/23 15:19:47;;;;;;;34.80;19.50;;;;;;;-2.75;70.04;98206.50;10374675;28;20076;-60
2022/01/23 15:24:47;;;;;;;;;;;;;;;-2.62;70.14;98236.00;10375075;28;20072;-60
2022/01/23 15:29:47;;;;;;;33.90;22.38;;;;;;;-2.87;70.19;98197.28;10374329;28;19959;-60
2022/01/23 15:34:48;;;;;;;43.35;25.75;;;;;;;-2.76;70.34;98236.88;10370778;28;20065;-60
2022/01/23 15:39:48;;;;;;;47.13;29.88;;;;;;;-2.73;70.44;98244.72;10332479;28;20085;-60
2022/01/23 15:44:47;;;;;;;42.72;27.05;;;;;;;-2.88;70.23;98223.47;10363600;28;20530;-60
2022/01/23 15:49:47;;;;;;;49.95;32.88;;;;;;;-2.83;70.22;98253.41;10373379;28;20510;-60
2022/01/23 15:54:46;;;;;;;51.38;32.50;;;;;;;-2.82;70.47;98259.41;10374316;28;20072;-60
2022/01/23 15:59:45;;;;;;;73.57;45.45;;;;;;;-2.97;71.21;98265.31;10374675;28;20072;-60
2022/01/23 16:04:44;;;;;;;53.85;32.67;;;;;;;-3.14;72.06;98269.34;10372564;28;20120;-60
2022/01/23 16:09:44;;;;;;;60.85;39.38;;;;;;;-3.43;73.41;98254.91;10372684;28;20072;-60
2022/01/23 16:14:43;;;;;;;62.42;36.83;;;;;;;-3.46;73.31;98271.59;10374913;28;20090;-60
2022/01/23 16:19:42;;;;;;;64.25;40.42;;;;;;;-3.52;73.15;98259.41;10380867;28;20071;-60
2022/01/23 16:24:41;;;;;;;56.20;36.50;;;;;;;-3.58;72.89;98231.13;10381350;28;20033;-60
2022/01/23 16:29:42;;;;;;;76.88;49.72;;;;;;;-3.37;72.97;98257.81;10381258;28;20418;-60
2022/01/23 16:34:41;;;;;;;71.75;41.78;;;;;;;-3.30;72.78;98265.81;10380322;28;20064;-60
2022/01/23 16:39:40;;;;;;;76.53;46.42;;;;;;;-3.15;72.84;98267.63;10366924;28;20491;-60
2022/01/23 16:44:40;;;;;;;85.38;49.38;;;;;;;-3.03;72.60;98264.06;10353246;28;20122;-60
2022/01/23 16:49:40;;;;;;;89.88;51.42;;;;;;;-3.20;73.15;98261.41;10361248;28;20057;-60
2022/01/23 16:54:39;;;;;;;80.38;43.40;;;;;;;-3.13;72.92;98273.66;10368777;28;20068;-60
2022/01/23 16:59:38;;;;;;;68.18;41.08;;;;;;;-3.09;72.66;98273.84;10380435;28;20107;-60
2022/01/23 17:04:37;;;;;;;67.57;39.78;;;;;;;-3.06;72.73;98290.16;10379668;28;20083;-60
2022/01/23 17:09:38;;;;;;;64.13;39.25;;;;;;;-3.23;72.42;98270.47;10379068;28;20116;-60
2022/01/23 17:14:37;;;;;;;40.92;25.20;;;;;;;-3.09;70.44;98307.72;10377398;28;20065;-60
2022/01/23 17:19:36;;;;;;;9.00;5.03;;;;;;;-4.04;69.88;98329.66;10379457;28;20033;-60
2022/01/23 17:24:37;;;;;;;21.92;13.38;;;;;;;-4.09;72.55;98320.84;10377844;28;20033;-60
2022/01/23 17:29:37;;;;;;;21.55;14.13;;;;;;;-4.71;72.08;98224.78;10378667;28;20087;-60
2022/01/23 17:34:36;;;;;;;17.92;11.27;;;;;;;-4.34;71.80;98261.00;10379091;28;20072;-60
2022/01/23 17:39:35;;;;;;;17.77;11.95;;;;;;;-3.97;71.14;98316.59;10378903;28;20487;-60
2022/01/23 17:44:36;;;;;;;20.65;12.02;;;;;;;-4.24;71.38;98250.66;10376293;28;20498;-60
2022/01/23 17:49:43;;;;;;;14.52;8.07;;;;;;;-4.18;70.43;98311.88;10377423;28;20076;-60
2022/01/23 17:54:42;;;;;;;16.13;10.27;;;;;;;-4.18;71.71;98326.22;10375887;28;20068;-60
2022/01/23 17:59:41;;;;;;;;;;;;;;;-4.14;71.65;98335.75;10378425;28;20494;-60
2022/01/23 18:04:40;;;;;;;12.77;7.93;;;;;;;-4.10;71.55;98331.78;10377420;28;20284;-60
2022/01/23 18:09:39;;;;;;;;;;;;;;;-4.01;71.03;98334.91;10376902;28;20511;-60
2022/01/23 18:14:43;;;;;;;20.42;11.77;;;;;;;-3.87;71.55;98333.28;10376854;28;20751;-60
2022/01/23 18:19:42;;;;;;;27.70;12.30;;;;;;;-4.55;71.35;98219.06;10376532;28;20072;-60
2022/01/23 18:24:42;;;;;;;28.33;14.60;;;;;;;-3.92;71.30;98332.97;10374926;28;20060;-60
2022/01/23 18:29:41;;;;;;;;;;;;;;;-3.84;72.02;98338.53;10374735;28;20453;-60
2022/01/23 18:34:40;;;;;;;46.63;24.88;;;;;;;-4.04;71.82;98352.47;10367019;28;19948;-60
2022/01/23 18:39:39;;;;;;;52.80;27.73;;;;;;;-4.00;72.20;98347.69;10334112;28;20041;-60
2022/01/23 18:44:38;;;;;;;43.20;23.77;;;;;;;-3.93;73.83;98354.03;10366294;28;20025;-60
2022/01/23 18:49:37;;;;;;;45.55;31.13;;;;;;;-4.12;75.14;98362.09;10375358;28;20056;-60
2022/01/23 18:54:42;;;;;;;34.40;23.95;;;;;;;-4.65;78.56;98378.00;10375037;28;20064;-60
2022/01/23 18:59:53;;;;;;;28.52;17.60;;;;;;;-4.83;81.39;98371.66;10375327;28;20088;-60
2022/01/23 19:05:01;;;;;;;44.47;30.13;;;;;;;-4.92;81.64;98365.97;10374463;28;20463;-60
2022/01/23 19:10:01;;;;;;;32.38;19.13;;;;;;;-4.91;80.68;98343.31;10375849;28;20072;-60
2022/01/23 19:15:00;;;;;;;22.60;13.40;;;;;;;-4.41;80.56;98370.28;10375302;28;20490;-60
2022/01/23 19:20:00;;;;;;;22.25;12.45;;;;;;;-4.31;79.92;98354.91;10375104;28;20469;-60
2022/01/23 19:24:59;;;;;;;27.00;15.98;;;;;;;-4.04;80.17;98365.13;10375485;28;20072;-60
2022/01/23 19:30:04;;;;;;;22.20;13.93;;;;;;;-4.39;79.56;98280.09;10366405;28;20487;-60
2022/01/23 19:35:04;;;;;;;22.98;13.25;;;;;;;-3.78;80.43;98367.72;10368537;28;20064;-60
2022/01/23 19:40:04;;;;;;;28.25;14.65;;;;;;;-3.69;79.52;98369.97;10354741;28;20072;-60
2022/01/23 19:45:04;;;;;;;22.55;12.93;;;;;;;-3.68;80.16;98356.50;10343735;28;20527;-60
2022/01/23 19:50:04;;;;;;;20.92;12.02;;;;;;;-3.54;80.03;98380.19;10332323;28;20519;-60
2022/01/23 19:55:04;;;;;;;21.85;12.18;;;;;;;-3.81;79.73;98320.97;10332442;28;20065;-60
2022/01/23 20:00:05;;;;;;;24.13;13.48;;;;;;;-3.80;79.86;98323.63;10333070;28;20065;-60
2022/01/23 20:05:05;;;;;;;27.70;16.50;;;;;;;-3.51;79.29;98388.00;10332515;28;20088;-60
2022/01/23 20:10:21;;;;;;;;;;;;;;;-3.56;78.97;98386.84;10333126;28;20080;-60
2022/01/23 20:15:20;;;;;;;30.00;18.65;;;;;;;-3.60;78.98;98392.47;10332437;28;20391;-60
2022/01/23 20:20:20;;;;;;;96.85;49.60;;;;;;;-4.14;79.46;98312.06;10332679;28;20076;-60
2022/01/23 20:25:19;;;;;;;68.65;38.25;;;;;;;-3.63;79.68;98389.75;10331356;28;20071;-60
2022/01/23 20:30:18;;;;;;;;;;;;;;;-3.93;77.43;98406.38;10331109;28;20087;-60
2022/01/23 20:35:17;;;;;;;31.50;19.00;;;;;;;-4.11;78.06;98408.59;10342883;28;20395;-60
2022/01/23 20:40:22;;;;;;;42.38;24.73;;;;;;;-4.13;77.49;98415.22;10370785;28;20488;-60
2022/01/23 20:45:21;;;;;;;55.83;30.25;;;;;;;-4.10;78.46;98418.81;10371832;28;20068;-60
2022/01/23 20:50:21;;;;;;;32.95;19.20;;;;;;;-4.46;77.71;98369.13;10372258;28;21004;-60
2022/01/23 20:55:20;;;;;;;30.65;19.52;;;;;;;-4.10;77.65;98421.34;10368116;28;20068;-60
2022/01/23 21:00:19;;;;;;;24.90;12.95;;;;;;;-3.96;77.35;98419.75;10372752;28;20146;-60
2022/01/23 21:05:18;;;;;;;28.50;15.68;;;;;;;-4.06;78.02;98397.09;10369854;28;20106;-60
2022/01/23 21:10:19;;;;;;;28.08;15.82;;;;;;;-4.47;77.09;98347.06;10379263;28;20709;-60
2022/01/23 21:16:05;;;;;;;34.28;20.23;;;;;;;-4.16;77.09;98423.50;10344227;28;20065;-60
2022/01/23 21:41:49;;;;;;;37.33;20.98;;;;;;;-4.20;77.54;98409.72;10386417;28;20068;-60
2022/01/23 21:46:48;;;;;;;36.00;22.45;;;;;;;-3.98;78.46;98436.50;10419662;28;20029;-60
2022/01/23 21:51:49;;;;;;;35.13;18.83;;;;;;;-3.95;77.58;98445.97;10419557;28;20035;-60
2022/01/23 21:56:48;;;;;;;30.75;19.02;;;;;;;-4.00;77.30;98453.25;10419033;28;20063;-60
2022/01/23 22:01:47;;;;;;;42.20;24.15;;;;;;;-4.10;77.81;98455.97;10418634;28;20068;-60
2022/01/23 22:06:46;;;;;;;29.67;16.50;;;;;;;-4.23;78.47;98465.28;10416781;28;20083;-60
2022/01/23 22:17:04;;;;;;;27.60;16.17;;;;;;;-4.40;78.74;98464.09;10406200;28;20502;-60
2022/01/23 22:27:21;;;;;;;37.83;19.38;;;;;;;-4.99;78.35;98366.31;10415262;28;20071;-60
2022/01/23 22:32:20;;;;;;;39.92;21.27;;;;;;;-4.43;77.44;98443.66;10417310;28;20031;-60
2022/01/23 22:37:26;;;;;;;30.77;19.02;;;;;;;-4.43;77.41;98468.97;10417058;28;20043;-60
2022/01/23 22:42:27;;;;;;;31.10;17.65;;;;;;;-4.48;77.56;98466.91;10416015;28;20071;-60
2022/01/23 22:47:27;;;;;;;34.85;19.08;;;;;;;-4.50;76.36;98460.84;10414709;28;20071;-60
2022/01/23 22:52:26;;;;;;;38.97;22.15;;;;;;;-4.54;77.42;98467.34;10413549;28;20064;-60
2022/01/23 22:57:25;;;;;;;36.10;19.42;;;;;;;-4.47;76.52;98473.72;10412507;28;20028;-60
2022/01/23 23:02:24;;;;;;;35.95;18.95;;;;;;;-4.41;77.64;98476.69;10413979;28;20044;-60
2022/01/23 23:07:23;;;;;;;28.85;16.05;;;;;;;-4.50;77.09;98483.66;10415602;28;20115;-61
2022/01/23 23:12:29;;;;;;;29.85;15.13;;;;;;;-4.47;76.66;98478.78;10415369;28;20036;-60
2022/01/23 23:17:28;;;;;;;27.75;15.45;;;;;;;-4.48;78.17;98488.06;10413054;28;20063;-60
2022/01/23 23:22:27;;;;;;;27.23;17.35;;;;;;;-4.53;77.01;98478.38;10411457;28;20032;-60
2022/01/23 23:27:26;;;;;;;28.05;16.30;;;;;;;-4.41;77.71;98494.44;10411763;28;20056;-60
2022/01/23 23:32:25;;;;;;;26.65;13.65;;;;;;;-4.54;77.58;98484.22;10414365;28;20059;-60
2022/01/23 23:37:24;;;;;;;24.17;14.05;;;;;;;-4.41;78.07;98494.44;10415599;28;20043;-60
2022/01/23 23:42:38;;;;;;;26.98;15.68;;;;;;;-4.35;78.01;98501.56;10415482;28;20028;-60
2022/01/23 23:47:37;;;;;;;24.55;15.25;;;;;;;-4.37;78.07;98501.47;10415977;28;20076;-60
2022/01/23 23:52:46;;;;;;;25.50;15.35;;;;;;;-4.48;78.02;98507.44;10414105;28;20094;-60
2022/01/23 23:57:48;;;;;;;38.45;18.73;;;;;;;-4.93;78.32;98441.03;10414316;28;20056;-60
